Time;durP1;ratioP1;P1;durP2;ratioP2;P2;SDS_P1;SDS_P2;PMS_P1;PMS_P2;Temp;Humidity;BMP_temperature;BMP_pressure;BME280_temperature;BME280_humidity;BME280_pressure;Samples;Min_cycle;Max_cycle;Signal;HPM_P1;HPM_P2
2024/01/13 00:02:05;;;;;;;;;;;;;;;-4.55;91.31;93402.66;5060961;28;19924;-70
2024/01/13 00:04:31;;;;;;;;;;;;;;;-4.27;90.43;93403.09;5060008;28;19951;-70
2024/01/13 00:06:59;;;;;;;;;;;;;;;-4.15;91.74;93403.91;5063043;28;20263;-70
2024/01/13 00:09:26;;;;;;;;;;;;;;;-4.04;92.58;93393.06;5058328;28;20370;-70
2024/01/13 00:11:52;;;;;;;;;;;;;;;-4.04;89.68;93403.91;5062690;28;20526;-70
2024/01/13 00:14:19;;;;;;;;;;;;;;;-3.90;90.90;93402.03;5061723;28;19930;-71
2024/01/13 00:16:46;;;;;;;;;;;;;;;-3.78;93.21;93407.84;5062601;28;20644;-70
2024/01/13 00:19:13;;;;;;;;;;;;;;;-3.78;91.91;93412.88;5062345;28;19934;-70
2024/01/13 00:21:39;;;;;;;;;;;;;;;-3.60;91.98;93403.13;5059687;28;19921;-70
2024/01/13 00:24:07;;;;;;;;;;;;;;;-3.54;90.40;93401.84;5059878;28;19931;-70
2024/01/13 00:26:34;;;;;;;;;;;;;;;-3.53;89.22;93413.47;5060059;28;19930;-70
2024/01/13 00:29:01;;;;;;;;;;;;;;;-3.45;90.32;93412.88;5059311;28;19978;-70
2024/01/13 00:31:27;;;;;;;;;;;;;;;-3.37;90.98;93403.84;5059797;28;20301;-70
2024/01/13 00:33:54;;;;;;;;;;;;;;;-3.32;91.39;93403.50;5062682;28;19924;-70
2024/01/13 00:36:21;;;;;;;;;;;;;;;-3.23;91.23;93410.28;5062284;28;19943;-70
2024/01/13 00:38:48;;;;;;;;;;;;;;;-3.19;89.98;93395.78;5063234;28;19924;-70
2024/01/13 00:41:16;;;;;;;;;;;;;;;-3.16;89.87;93404.81;5063707;28;19936;-70
2024/01/13 00:43:42;;;;;;;;;;;;;;;-3.13;89.07;93400.34;5062509;28;19920;-70
2024/01/13 00:46:09;;;;;;;;;;;;;;;-3.10;89.51;93405.09;5060667;28;20387;-70
2024/01/13 00:48:36;;;;;;;;;;;;;;;-3.06;87.75;93400.63;5061098;28;19931;-70
2024/01/13 00:51:03;;;;;;;;;;;;;;;-3.03;87.66;93402.09;5060831;28;19931;-70
2024/01/13 00:53:29;;;;;;;;;;;;;;;-3.01;88.01;93391.00;5058942;28;19924;-70
2024/01/13 00:55:56;;;;;;;;;;;;;;;-3.06;86.33;93397.34;5061312;28;20475;-70
2024/01/13 00:58:24;;;;;;;;;;;;;;;-3.39;82.60;93399.84;5063290;28;19934;-70
2024/01/13 01:00:50;;;;;;;;;;;;;;;-3.43;83.84;93398.50;5059890;28;19924;-70
2024/01/13 01:03:17;;;;;;;;;;;;;;;-3.40;85.65;93399.06;5058067;28;19924;-70
2024/01/13 01:05:44;;;;;;;;;;;;;;;-3.42;85.72;93400.88;5058710;28;20338;-70
2024/01/13 01:08:10;;;;;;;;;;;;;;;-3.47;84.44;93400.47;5062869;28;20720;-70
2024/01/13 01:10:37;;;;;;;;;;;;;;;-3.55;84.55;93392.72;5059198;28;19986;-70
2024/01/13 01:13:04;;;;;;;;;;;;;;;-3.52;84.97;93388.25;5061667;28;19924;-70
2024/01/13 01:15:32;;;;;;;;;;;;;;;-3.65;85.16;93385.91;5064244;28;19993;-70
2024/01/13 01:17:59;;;;;;;;;;;;;;;-3.65;86.06;93382.59;5058377;28;19959;-70
2024/01/13 01:20:25;;;;;;;;;;;;;;;-3.60;86.01;93375.50;5059219;28;20035;-70
2024/01/13 01:22:52;;;;;;;;;;;;;;;-3.86;85.06;93378.31;5059133;28;19931;-70
2024/01/13 01:25:19;;;;;;;;;;;;;;;-3.81;85.63;93381.28;5059083;28;19924;-70
2024/01/13 01:27:45;;;;;;;;;;;;;;;-4.02;86.61;93374.47;5060288;28;19931;-69
2024/01/13 01:30:13;;;;;;;;;;;;;;;-3.76;89.40;93374.19;5059763;28;19924;-70
2024/01/13 01:32:41;;;;;;;;;;;;;;;-3.65;88.79;93372.56;5060649;28;19928;-70
2024/01/13 01:35:08;;;;;;;;;;;;;;;-3.77;87.28;93366.75;5062738;28;19930;-70
2024/01/13 01:37:34;;;;;;;;;;;;;;;-3.70;87.26;93374.63;5064697;28;19924;-70
2024/01/13 01:40:01;;;;;;;;;;;;;;;-3.76;85.85;93364.16;5059938;28;19931;-70
2024/01/13 01:42:28;;;;;;;;;;;;;;;-3.89;85.49;93361.78;5063709;28;20319;-69
2024/01/13 01:44:55;;;;;;;;;;;;;;;-3.83;85.54;93360.53;5058668;28;19924;-69
2024/01/13 01:47:22;;;;;;;;;;;;;;;-3.74;85.88;93365.72;5061192;28;19924;-70
2024/01/13 01:49:50;;;;;;;;;;;;;;;-3.95;86.66;93368.97;5062316;28;19924;-70
2024/01/13 01:52:17;;;;;;;;;;;;;;;-4.08;87.59;93364.09;5060829;28;19924;-70
2024/01/13 01:54:44;;;;;;;;;;;;;;;-3.97;86.98;93355.75;5063378;28;20724;-69
2024/01/13 01:57:11;;;;;;;;;;;;;;;-3.98;87.42;93354.94;5060630;28;20736;-69
2024/01/13 01:59:38;;;;;;;;;;;;;;;-3.80;89.00;93349.44;5063402;28;19924;-69
2024/01/13 02:02:07;;;;;;;;;;;;;;;-3.72;88.23;93356.34;5060299;28;19931;-70
2024/01/13 02:04:33;;;;;;;;;;;;;;;-3.95;87.23;93363.94;5057370;28;19924;-70
2024/01/13 02:07:02;;;;;;;;;;;;;;;-3.86;87.59;93360.75;5061841;28;19924;-70
2024/01/13 02:09:28;;;;;;;;;;;;;;;-3.87;88.14;93356.66;5061648;28;19969;-70
2024/01/13 02:11:55;;;;;;;;;;;;;;;-3.91;87.44;93368.63;5061944;28;20370;-69
2024/01/13 02:14:22;;;;;;;;;;;;;;;-4.04;89.50;93360.44;5055794;28;21865;-69
2024/01/13 02:16:49;;;;;;;;;;;;;;;-3.99;89.81;93350.06;5057864;28;19925;-69
2024/01/13 02:19:15;;;;;;;;;;;;;;;-3.93;89.53;93360.41;5058916;28;19928;-70
2024/01/13 02:21:43;;;;;;;;;;;;;;;-4.03;89.56;93347.00;5059545;28;19928;-70
2024/01/13 02:24:10;;;;;;;;;;;;;;;-3.85;90.61;93356.53;5061230;28;19921;-70
2024/01/13 02:26:37;;;;;;;;;;;;;;;-4.37;90.86;93354.53;5065513;28;20489;-70
2024/01/13 02:29:04;;;;;;;;;;;;;;;-4.35;90.01;93346.00;5061755;28;19930;-69
2024/01/13 02:31:30;;;;;;;;;;;;;;;-3.99;90.98;93345.81;5059710;28;19924;-69
2024/01/13 02:33:57;;;;;;;;;;;;;;;-3.83;90.14;93334.59;5061741;28;20019;-69
2024/01/13 02:36:24;;;;;;;;;;;;;;;-3.80;90.14;93324.34;5060704;28;19970;-70
2024/01/13 02:38:52;;;;;;;;;;;;;;;-3.84;87.90;93323.75;5062937;28;20396;-70
2024/01/13 02:41:18;;;;;;;;;;;;;;;-3.81;87.49;93320.22;5060889;28;19930;-69
2024/01/13 02:43:45;;;;;;;;;;;;;;;-4.05;86.95;93329.53;5061432;28;20112;-69
2024/01/13 02:46:12;;;;;;;;;;;;;;;-4.07;87.54;93323.81;5065557;28;19920;-70
2024/01/13 02:48:40;;;;;;;;;;;;;;;-4.25;89.21;93327.75;5061194;28;19962;-70
2024/01/13 02:51:07;;;;;;;;;;;;;;;-4.20;89.42;93333.22;5064554;28;19978;-71
2024/01/13 02:53:33;;;;;;;;;;;;;;;-4.36;89.72;93324.34;5065396;28;19925;-70
2024/01/13 02:56:02;;;;;;;;;;;;;;;-4.20;88.45;93320.69;5064315;28;20379;-71
2024/01/13 02:58:28;;;;;;;;;;;;;;;-4.05;90.93;93321.22;5062909;28;19967;-70
2024/01/13 03:00:55;;;;;;;;;;;;;;;-3.97;91.51;93330.66;5059583;28;19942;-70
2024/01/13 03:03:22;;;;;;;;;;;;;;;-4.19;91.15;93327.28;5062755;28;19928;-69
2024/01/13 03:05:48;;;;;;;;;;;;;;;-4.10;91.52;93324.06;5064108;28;20364;-69
2024/01/13 03:08:15;;;;;;;;;;;;;;;-4.22;91.41;93335.06;5064758;28;19925;-70
2024/01/13 03:10:42;;;;;;;;;;;;;;;-4.29;91.04;93322.94;5063079;28;19924;-70
2024/01/13 03:13:10;;;;;;;;;;;;;;;-4.17;92.08;93325.47;5065980;28;20040;-71
2024/01/13 03:15:36;;;;;;;;;;;;;;;-4.19;91.85;93324.78;5064650;28;20018;-71
2024/01/13 03:18:03;;;;;;;;;;;;;;;-4.67;93.12;93329.16;5066023;28;20039;-71
2024/01/13 03:20:30;;;;;;;;;;;;;;;-4.64;95.12;93326.41;5066300;28;19924;-70
2024/01/13 03:22:56;;;;;;;;;;;;;;;-4.19;95.88;93334.81;5063925;28;20907;-70
2024/01/13 03:25:23;;;;;;;;;;;;;;;-4.50;94.73;93347.16;5064729;28;19920;-71
2024/01/13 03:27:49;;;;;;;;;;;;;;;-4.83;96.78;93340.31;5065892;28;19931;-70
2024/01/13 03:30:17;;;;;;;;;;;;;;;-4.73;97.60;93350.44;5066277;28;20660;-70
2024/01/13 03:32:44;;;;;;;;;;;;;;;-4.71;97.38;93342.81;5065787;28;20610;-70
2024/01/13 03:35:11;;;;;;;;;;;;;;;-4.89;97.52;93339.97;5066789;28;19924;-70
2024/01/13 03:37:37;;;;;;;;;;;;;;;-5.13;99.43;93349.13;5067266;28;19924;-70
2024/01/13 03:40:05;;;;;;;;;;;;;;;-5.15;99.50;93347.66;5065555;28;19970;-70
2024/01/13 03:42:31;;;;;;;;;;;;;;;-5.03;99.44;93359.31;5065537;28;20027;-70
2024/01/13 03:44:58;;;;;;;;;;;;;;;-4.65;99.85;93351.59;5066901;28;20441;-69
2024/01/13 03:47:26;;;;;;;;;;;;;;;-4.83;99.52;93349.53;5065956;28;19931;-69
2024/01/13 03:49:52;;;;;;;;;;;;;;;-5.08;100.00;93345.50;5064905;28;20041;-69
2024/01/13 03:52:19;;;;;;;;;;;;;;;-5.08;99.72;93346.31;5062687;28;19925;-70
2024/01/13 03:54:46;;;;;;;;;;;;;;;-5.05;98.66;93341.06;5067337;28;19925;-70
2024/01/13 03:57:12;;;;;;;;;;;;;;;-5.00;97.02;93341.53;5066981;28;19943;-70
2024/01/13 03:59:39;;;;;;;;;;;;;;;-4.97;94.80;93340.50;5064576;28;19924;-70
2024/01/13 04:02:06;;;;;;;;;;;;;;;-5.17;96.90;93339.47;5065277;28;19931;-70
2024/01/13 04:04:34;;;;;;;;;;;;;;;-4.86;97.83;93338.03;5064046;28;20298;-70
2024/01/13 04:07:01;;;;;;;;;;;;;;;-4.44;99.36;93329.94;5065246;28;19930;-70
2024/01/13 04:09:28;;;;;;;;;;;;;;;-4.40;96.60;93333.00;5065864;28;19926;-70
2024/01/13 04:11:54;;;;;;;;;;;;;;;-4.85;92.08;93331.31;5061705;28;19928;-70
2024/01/13 04:14:21;;;;;;;;;;;;;;;-4.77;91.64;93336.53;5060258;28;20412;-70
2024/01/13 04:16:48;;;;;;;;;;;;;;;-4.79;91.06;93333.38;5057287;28;19995;-70
2024/01/13 04:19:15;;;;;;;;;;;;;;;-4.53;91.00;93332.34;5065837;28;19928;-70
2024/01/13 04:21:43;;;;;;;;;;;;;;;-4.80;88.39;93344.31;5067401;28;19922;-70
2024/01/13 04:24:10;;;;;;;;;;;;;;;-4.95;87.69;93341.22;5064564;28;20631;-70
2024/01/13 04:26:37;;;;;;;;;;;;;;;-5.06;87.95;93342.00;5065818;28;19924;-70
2024/01/13 04:29:04;;;;;;;;;;;;;;;-4.57;90.66;93349.31;5062979;28;20382;-71
2024/01/13 04:31:30;;;;;;;;;;;;;;;-4.74;88.26;93358.06;5065741;28;20014;-70
2024/01/13 04:33:57;;;;;;;;;;;;;;;-5.10;89.43;93360.66;5061223;28;19920;-70
2024/01/13 04:36:23;;;;;;;;;;;;;;;-5.27;89.81;93367.66;5067837;28;19946;-70
2024/01/13 04:38:52;;;;;;;;;;;;;;;-5.14;90.31;93366.81;5058827;28;20332;-70
2024/01/13 04:41:18;;;;;;;;;;;;;;;-5.24;90.65;93359.94;5064590;28;19941;-69
2024/01/13 04:43:45;;;;;;;;;;;;;;;-5.21;91.74;93363.13;5064508;28;20297;-69
2024/01/13 04:46:12;;;;;;;;;;;;;;;-5.23;93.13;93358.25;5056569;28;19920;-69
2024/01/13 04:48:39;;;;;;;;;;;;;;;-5.24;92.57;93366.66;5063119;28;20003;-70
2024/01/13 04:51:06;;;;;;;;;;;;;;;-5.44;92.58;93366.38;5061715;28;19928;-70
2024/01/13 04:53:32;;;;;;;;;;;;;;;-5.34;92.13;93371.53;5066455;28;19924;-70
2024/01/13 04:56:00;;;;;;;;;;;;;;;-5.46;92.82;93370.66;5063044;28;19934;-70
2024/01/13 04:58:27;;;;;;;;;;;;;;;-5.46;93.08;93365.66;5065832;28;19967;-69
2024/01/13 05:00:54;;;;;;;;;;;;;;;-5.40;92.06;93362.75;5064300;28;19924;-70
2024/01/13 05:03:20;;;;;;;;;;;;;;;-5.40;91.10;93360.25;5060263;28;20586;-70
2024/01/13 05:05:48;;;;;;;;;;;;;;;-5.31;92.18;93365.50;5064747;28;19924;-70
2024/01/13 05:08:14;;;;;;;;;;;;;;;-5.57;90.87;93365.63;5066605;28;19920;-69
2024/01/13 05:10:41;;;;;;;;;;;;;;;-5.43;90.88;93362.16;5066130;28;19971;-69
2024/01/13 05:13:09;;;;;;;;;;;;;;;-5.48;90.93;93364.97;5063165;28;20304;-69
2024/01/13 05:15:35;;;;;;;;;;;;;;;-5.39;91.75;93371.84;5062087;28;19926;-69
2024/01/13 05:18:02;;;;;;;;;;;;;;;-5.35;91.23;93367.44;5058530;28;19931;-69
2024/01/13 05:20:29;;;;;;;;;;;;;;;-5.57;91.30;93370.63;5066475;28;19920;-69
2024/01/13 05:22:57;;;;;;;;;;;;;;;-5.55;90.55;93364.59;5061963;28;19931;-69
2024/01/13 05:25:23;;;;;;;;;;;;;;;-5.31;90.57;93357.97;5066036;28;19930;-69
2024/01/13 05:27:50;;;;;;;;;;;;;;;-5.51;90.73;93355.22;5062910;28;19920;-69
2024/01/13 05:30:18;;;;;;;;;;;;;;;-5.57;89.71;93350.59;5065083;28;19924;-70
2024/01/13 05:32:45;;;;;;;;;;;;;;;-5.29;89.70;93341.94;5063633;28;19924;-70
2024/01/13 05:35:12;;;;;;;;;;;;;;;-4.86;90.57;93330.50;5064501;28;19942;-70
2024/01/13 05:37:38;;;;;;;;;;;;;;;-4.50;92.96;93339.66;5063504;28;20026;-70
2024/01/13 05:40:06;;;;;;;;;;;;;;;-4.26;91.52;93358.78;5062547;28;19967;-70
2024/01/13 05:42:32;;;;;;;;;;;;;;;-4.39;87.63;93357.19;5059007;28;19926;-70
2024/01/13 05:44:59;;;;;;;;;;;;;;;-4.80;86.46;93349.31;5060113;28;20491;-70
2024/01/13 05:47:27;;;;;;;;;;;;;;;-5.18;87.58;93350.41;5064386;28;19924;-69
2024/01/13 05:49:54;;;;;;;;;;;;;;;-4.77;88.85;93341.56;5064291;28;19946;-70
2024/01/13 05:52:20;;;;;;;;;;;;;;;-4.75;86.12;93348.97;5063971;28;20266;-70
2024/01/13 05:54:47;;;;;;;;;;;;;;;-5.30;87.17;93362.88;5059596;28;19920;-70
2024/01/13 05:57:14;;;;;;;;;;;;;;;-5.23;87.92;93358.25;5066189;28;19930;-70
2024/01/13 05:59:40;;;;;;;;;;;;;;;-5.38;88.53;93355.91;5067519;28;19924;-70
2024/01/13 06:02:07;;;;;;;;;;;;;;;-5.39;89.09;93364.34;5068973;28;20382;-70
2024/01/13 06:04:35;;;;;;;;;;;;;;;-5.54;89.90;93362.91;5063386;28;19924;-70
2024/01/13 06:07:04;;;;;;;;;;;;;;;-5.54;90.00;93358.72;5069150;28;19930;-70
2024/01/13 06:09:31;;;;;;;;;;;;;;;-5.18;90.35;93358.72;5066622;28;19921;-69
2024/01/13 06:11:57;;;;;;;;;;;;;;;-5.03;90.05;93354.31;5068731;28;19928;-69
2024/01/13 06:14:24;;;;;;;;;;;;;;;-5.25;88.63;93350.84;5068924;28;19925;-70
2024/01/13 06:16:51;;;;;;;;;;;;;;;-5.37;89.84;93354.22;5064125;28;19925;-70
2024/01/13 06:19:17;;;;;;;;;;;;;;;-5.18;90.64;93358.72;5066503;28;19939;-70
2024/01/13 06:21:45;;;;;;;;;;;;;;;-5.08;89.74;93358.03;5066700;28;19924;-70
2024/01/13 06:24:12;;;;;;;;;;;;;;;-4.84;89.61;93353.75;5066021;28;19924;-70
2024/01/13 06:26:40;;;;;;;;;;;;;;;-4.95;88.22;93361.25;5066041;28;20325;-70
2024/01/13 06:29:07;;;;;;;;;;;;;;;-5.10;89.08;93368.97;5068269;28;19924;-70
2024/01/13 06:31:33;;;;;;;;;;;;;;;-5.26;90.42;93366.78;5067505;28;19926;-70
2024/01/13 06:34:00;;;;;;;;;;;;;;;-4.99;90.43;93363.16;5064136;28;19925;-69
2024/01/13 06:36:27;;;;;;;;;;;;;;;-4.90;88.67;93353.41;5060401;28;19920;-69
2024/01/13 06:38:56;;;;;;;;;;;;;;;-5.14;88.35;93344.25;5058491;28;19924;-70
2024/01/13 06:41:23;;;;;;;;;;;;;;;-4.85;88.81;93342.13;5055452;28;20424;-70
2024/01/13 06:43:50;;;;;;;;;;;;;;;-4.74;88.33;93350.56;5057983;28;19921;-69
2024/01/13 06:46:16;;;;;;;;;;;;;;;-4.64;87.03;93359.00;5055155;28;19952;-70
2024/01/13 06:48:44;;;;;;;;;;;;;;;-4.62;86.35;93361.41;5052827;28;19920;-70
2024/01/13 06:51:10;;;;;;;;;;;;;;;-4.47;87.17;93352.75;5057190;28;19929;-70
2024/01/13 06:53:37;;;;;;;;;;;;;;;-4.26;87.51;93361.28;5054513;28;19920;-70
2024/01/13 06:56:05;;;;;;;;;;;;;;;-4.18;86.90;93364.00;5051725;28;19950;-70
2024/01/13 06:58:32;;;;;;;;;;;;;;;-4.14;85.46;93364.56;5051513;28;19931;-70
2024/01/13 07:01:01;;;;;;;;;;;;;;;-4.17;83.60;93380.66;5052203;28;20035;-70
2024/01/13 07:03:26;;;;;;;;;;;;;;;-4.11;83.19;93390.22;5052369;28;19924;-70
2024/01/13 07:05:56;;;;;;;;;;;;;;;-4.30;84.14;93386.56;5052235;28;20005;-70
2024/01/13 07:08:23;;;;;;;;;;;;;;;-4.41;85.04;93394.09;5051243;28;20408;-70
2024/01/13 07:10:51;;;;;;;;;;;;;;;-4.26;86.87;93379.63;5049129;28;20489;-70
2024/01/13 07:13:19;;;;;;;;;;;;;;;-4.33;84.68;93381.81;5046363;28;19928;-70
2024/01/13 07:15:45;;;;;;;;;;;;;;;-4.34;84.48;93397.78;5053232;28;19930;-70
2024/01/13 07:18:12;;;;;;;;;;;;;;;-4.33;84.39;93391.03;5051351;28;20404;-70
2024/01/13 07:20:39;;;;;;;;;;;;;;;-4.36;85.07;93393.78;5054899;28;19975;-70
2024/01/13 07:23:05;;;;;;;;;;;;;;;-4.44;85.67;93399.34;5051547;28;19931;-70
2024/01/13 07:25:33;;;;;;;;;;;;;;;-4.48;85.86;93393.78;5050700;28;19921;-70
2024/01/13 07:28:00;;;;;;;;;;;;;;;-4.64;86.38;93388.31;5057434;28;20289;-70
2024/01/13 07:30:28;;;;;;;;;;;;;;;-4.91;87.52;93391.91;5055286;28;20005;-70
2024/01/13 07:32:55;;;;;;;;;;;;;;;-4.96;88.86;93390.53;5052155;28;19924;-70
2024/01/13 07:35:21;;;;;;;;;;;;;;;-5.04;89.67;93389.47;5059344;28;19924;-73
2024/01/13 07:37:48;;;;;;;;;;;;;;;-4.98;90.15;93396.56;5054875;28;19924;-70
2024/01/13 07:40:22;;;;;;;;;;;;;;;-4.94;90.86;93389.59;5051356;28;20293;-69
2024/01/13 07:42:49;;;;;;;;;;;;;;;-4.83;90.34;93402.97;5054314;28;20024;-71
2024/01/13 07:45:16;;;;;;;;;;;;;;;-4.89;89.51;93402.59;5050199;28;19928;-70
2024/01/13 07:47:44;;;;;;;;;;;;;;;-4.86;89.21;93398.16;5057110;28;19955;-70
2024/01/13 07:50:21;;;;;;;;;;;;;;;-4.89;89.15;93413.44;5052334;28;20390;-70
2024/01/13 07:52:47;;;;;;;;;;;;;;;-4.79;90.67;93415.25;5058728;28;19925;-70
2024/01/13 07:55:14;;;;;;;;;;;;;;;-4.65;89.72;93416.75;5054672;28;20642;-70
2024/01/13 07:57:41;;;;;;;;;;;;;;;-4.52;90.25;93409.13;5053944;28;20767;-69
2024/01/13 08:00:09;;;;;;;;;;;;;;;-4.53;87.28;93410.06;5052141;28;20830;-70
2024/01/13 08:02:35;;;;;;;;;;;;;;;-4.59;89.44;93413.81;5049533;28;19932;-69
2024/01/13 08:05:04;;;;;;;;;;;;;;;-4.76;90.78;93408.34;5052923;28;19927;-70
2024/01/13 08:07:30;;;;;;;;;;;;;;;-4.87;90.60;93408.28;5050119;28;19931;-69
2024/01/13 08:09:57;;;;;;;;;;;;;;;-4.83;91.31;93402.16;5056755;28;19920;-70
2024/01/13 08:12:23;;;;;;;;;;;;;;;-4.47;91.87;93400.38;5055985;28;19924;-70
2024/01/13 08:14:50;;;;;;;;;;;;;;;-4.14;91.69;93404.69;5050962;28;19928;-70
2024/01/13 08:17:17;;;;;;;;;;;;;;;-3.85;90.47;93402.50;5050640;28;20031;-71
2024/01/13 08:19:43;;;;;;;;;;;;;;;-3.96;87.20;93403.31;5049780;28;19956;-70
2024/01/13 08:22:11;;;;;;;;;;;;;;;-4.14;87.79;93405.50;5049218;28;20013;-70
2024/01/13 08:24:37;;;;;;;;;;;;;;;-4.13;88.82;93404.59;5054272;28;19927;-70
2024/01/13 08:27:05;;;;;;;;;;;;;;;-4.31;89.44;93406.75;5053145;28;19924;-70
2024/01/13 08:29:31;;;;;;;;;;;;;;;-4.03;89.37;93412.22;5053841;28;20052;-69
2024/01/13 08:31:58;;;;;;;;;;;;;;;-4.21;88.58;93410.16;5051815;28;19920;-70
2024/01/13 08:34:25;;;;;;;;;;;;;;;-4.05;88.91;93419.06;5050943;28;19924;-70
2024/01/13 08:36:51;;;;;;;;;;;;;;;-3.89;88.57;93418.72;5062437;28;19924;-69
2024/01/13 08:39:20;;;;;;;;;;;;;;;-4.02;88.82;93413.81;5051498;28;19974;-70
2024/01/13 08:41:47;;;;;;;;;;;;;;;-3.91;89.39;93411.28;5049764;28;19940;-70
2024/01/13 08:44:15;;;;;;;;;;;;;;;-4.35;89.99;93410.41;5053047;28;19931;-69
2024/01/13 08:46:42;;;;;;;;;;;;;;;-4.10;90.03;93408.56;5051986;28;19920;-69
2024/01/13 08:49:08;;;;;;;;;;;;;;;-3.84;89.60;93401.56;5049750;28;19970;-69
2024/01/13 08:51:35;;;;;;;;;;;;;;;-3.76;89.74;93403.50;5054380;28;19920;-69
2024/01/13 08:54:02;;;;;;;;;;;;;;;-3.69;88.76;93389.56;5048976;28;19932;-70
2024/01/13 08:56:30;;;;;;;;;;;;;;;-3.71;90.11;93393.13;5057260;28;19962;-70
2024/01/13 08:58:57;;;;;;;;;;;;;;;-3.42;89.45;93395.09;5057099;28;19924;-70
2024/01/13 09:01:23;;;;;;;;;;;;;;;-3.30;88.12;93373.22;5051000;28;19921;-69
2024/01/13 09:03:50;;;;;;;;;;;;;;;-3.25;87.86;93371.94;5048069;28;19963;-70
2024/01/13 09:06:17;;;;;;;;;;;;;;;-2.91;89.26;93363.44;5051504;28;19974;-70
2024/01/13 09:08:43;;;;;;;;;;;;;;;-2.65;87.68;93354.69;5048247;28;19925;-70
2024/01/13 09:11:10;;;;;;;;;;;;;;;-2.69;86.58;93365.00;5052022;28;22293;-70
2024/01/13 09:13:39;;;;;;;;;;;;;;;-2.49;87.39;93359.25;5050918;28;20374;-70
2024/01/13 09:16:05;;;;;;;;;;;;;;;-2.56;85.84;93364.00;5049449;28;20280;-70
2024/01/13 09:18:32;;;;;;;;;;;;;;;-2.58;85.09;93364.09;5048891;28;20665;-70
2024/01/13 09:20:59;;;;;;;;;;;;;;;-2.23;87.21;93351.28;5056496;28;19929;-70
2024/01/13 09:23:25;;;;;;;;;;;;;;;-2.05;86.79;93359.00;5053346;28;19930;-70
2024/01/13 09:25:52;;;;;;;;;;;;;;;-2.04;84.96;93353.06;5055299;28;19920;-70
2024/01/13 09:28:18;;;;;;;;;;;;;;;-2.05;83.43;93353.97;5052534;28;19931;-70
2024/01/13 09:30:47;;;;;;;;;;;;;;;-1.78;83.28;93339.97;5051377;28;19927;-70
2024/01/13 09:33:13;;;;;;;;;;;;;;;-1.56;82.84;93348.19;5048406;28;19966;-69
2024/01/13 09:35:40;;;;;;;;;;;;;;;-1.54;79.20;93348.84;5051426;28;20036;-69
2024/01/13 09:38:07;;;;;;;;;;;;;;;-2.25;81.21;93338.00;5051829;28;20301;-70
2024/01/13 09:40:39;;;;;;;;;;;;;;;-2.61;80.34;93334.19;5048297;28;19925;-70
2024/01/13 09:43:09;;;;;;;;;;;;;;;-2.43;79.94;93336.91;5049282;28;19932;-71
2024/01/13 09:45:38;;;;;;;;;;;;;;;-2.63;80.27;93337.75;5048357;28;20386;-70
2024/01/13 09:48:08;;;;;;;;;;;;;;;-2.69;81.58;93329.78;5049102;28;19920;-70
2024/01/13 09:50:36;;;;;;;;;;;;;;;-2.19;83.44;93318.16;5049616;28;19925;-71
2024/01/13 09:53:06;;;;;;;;;;;;;;;-1.90;83.18;93317.41;5050280;28;21024;-71
2024/01/13 09:55:33;;;;;;;;;;;;;;;-1.96;79.32;93322.19;5050229;28;20401;-71
2024/01/13 09:58:00;;;;;;;;;;;;;;;-2.09;78.31;93319.94;5055564;28;19924;-71
2024/01/13 10:00:30;;;;;;;;;;;;;;;-2.16;76.69;93317.13;5053878;28;20375;-71
2024/01/13 10:02:57;;;;;;;;;;;;;;;-2.81;78.36;93318.22;5052206;28;19927;-71
2024/01/13 10:05:25;;;;;;;;;;;;;;;-2.55;79.40;93308.53;5049473;28;19924;-71
2024/01/13 10:07:53;;;;;;;;;;;;;;;-2.38;78.95;93301.31;5048408;28;20383;-71
2024/01/13 10:10:20;;;;;;;;;;;;;;;-2.39;77.67;93306.47;5048855;28;20626;-71
2024/01/13 10:12:47;;;;;;;;;;;;;;;-2.95;77.12;93302.53;5053059;28;19931;-71
2024/01/13 10:15:15;;;;;;;;;;;;;;;-2.70;77.14;93298.03;5047761;28;20286;-70
2024/01/13 10:17:42;;;;;;;;;;;;;;;-2.45;76.89;93295.97;5051535;28;20019;-70
2024/01/13 10:20:10;;;;;;;;;;;;;;;-1.97;79.40;93288.66;5054697;28;19935;-72
2024/01/13 10:22:38;;;;;;;;;;;;;;;-1.86;78.28;93272.63;5047846;28;19921;-71
2024/01/13 10:25:06;;;;;;;;;;;;;;;-1.62;77.33;93267.19;5051076;28;19931;-71
2024/01/13 10:27:33;;;;;;;;;;;;;;;-1.52;74.98;93264.66;5051703;28;19920;-70
2024/01/13 10:30:00;;;;;;;;;;;;;;;-1.18;76.53;93258.38;5056366;28;19924;-71
2024/01/13 10:32:28;;;;;;;;;;;;;;;-1.23;74.20;93268.06;5053512;28;19924;-71
2024/01/13 10:34:55;;;;;;;;;;;;;;;-1.85;74.72;93259.09;5050718;28;19921;-71
2024/01/13 10:37:21;;;;;;;;;;;;;;;-1.91;74.42;93262.97;5049194;28;19925;-71
2024/01/13 10:39:49;;;;;;;;;;;;;;;-1.34;77.56;93253.91;5053156;28;19936;-71
2024/01/13 10:42:19;;;;;;;;;;;;;;;-1.31;70.80;93265.44;5050768;28;19931;-71
2024/01/13 10:44:47;;;;;;;;;;;;;;;-1.33;70.91;93262.25;5056763;28;19924;-71
2024/01/13 10:47:15;;;;;;;;;;;;;;;-1.13;69.55;93265.53;5052850;28;19924;-71
2024/01/13 10:49:42;;;;;;;;;;;;;;;-0.82;74.34;93262.78;5052271;28;19924;-72
2024/01/13 10:52:12;;;;;;;;;;;;;;;-0.67;74.09;93265.63;5051818;28;19924;-72
2024/01/13 10:54:40;;;;;;;;;;;;;;;-0.51;72.28;93259.19;5057323;28;19920;-72
2024/01/13 10:57:09;;;;;;;;;;;;;;;-0.23;73.81;93256.66;5055148;28;19931;-72
2024/01/13 10:59:36;;;;;;;;;;;;;;;0.04;74.00;93252.50;5052566;28;19924;-73
2024/01/13 11:02:05;;;;;;;;;;;;;;;-0.20;70.84;93253.84;5055785;28;19920;-72
2024/01/13 11:04:33;;;;;;;;;;;;;;;-0.36;71.16;93255.28;5061468;28;19930;-72
2024/01/13 11:07:00;;;;;;;;;;;;;;;-0.38;71.59;93257.13;5054436;28;20040;-72
2024/01/13 11:09:27;;;;;;;;;;;;;;;-0.39;71.55;93258.06;5051178;28;19928;-73
2024/01/13 11:12:00;;;;;;;;;;;;;;;-0.43;71.36;93255.03;5051537;28;20026;-72
2024/01/13 11:14:33;;;;;;;;;;;;;;;-1.40;73.59;93247.69;5051384;28;20325;-73
2024/01/13 11:17:01;;;;;;;;;;;;;;;-1.57;74.71;93233.25;5052894;28;20337;-72
2024/01/13 11:19:27;;;;;;;;;;;;;;;-1.33;74.71;93242.09;5058773;28;19931;-72
2024/01/13 11:21:54;;;;;;;;;;;;;;;-1.51;73.51;93235.22;5050434;28;19924;-72
2024/01/13 11:24:21;;;;;;;;;;;;;;;-1.91;76.50;93229.44;5054301;28;19924;-72
2024/01/13 11:26:49;;;;;;;;;;;;;;;-1.77;77.04;93224.00;5057311;28;19925;-73
2024/01/13 11:29:17;;;;;;;;;;;;;;;-1.71;76.94;93217.63;5050862;28;19932;-73
2024/01/13 11:31:45;;;;;;;;;;;;;;;-2.00;77.63;93220.94;5050561;28;20381;-73
2024/01/13 11:34:13;;;;;;;;;;;;;;;-2.43;77.77;93226.22;5050734;28;19927;-73
2024/01/13 11:36:40;;;;;;;;;;;;;;;-2.30;79.90;93218.41;5049674;28;20386;-72
2024/01/13 11:39:08;;;;;;;;;;;;;;;-2.18;79.48;93220.84;5056643;28;19927;-72
2024/01/13 11:41:39;;;;;;;;;;;;;;;-2.05;77.91;93210.47;5054423;28;19924;-73
2024/01/13 11:44:06;;;;;;;;;;;;;;;-1.74;76.79;93207.81;5052113;28;20453;-73
2024/01/13 11:46:33;;;;;;;;;;;;;;;-1.29;78.03;93218.22;5052841;28;19931;-73
2024/01/13 11:49:03;;;;;;;;;;;;;;;-0.86;78.80;93213.53;5050354;28;20554;-73
2024/01/13 11:51:44;;;;;;;;;;;;;;;-0.50;78.28;93207.78;5050694;28;19924;-73
2024/01/13 11:54:12;;;;;;;;;;;;;;;-0.68;73.05;93216.13;5054673;28;19942;-73
2024/01/13 11:56:38;;;;;;;;;;;;;;;-0.37;72.89;93209.97;5053657;28;19920;-73
2024/01/13 11:59:05;;;;;;;;;;;;;;;-0.34;72.52;93200.38;5058169;28;20008;-73
2024/01/13 12:01:32;;;;;;;;;;;;;;;-0.17;73.58;93192.97;5053530;28;19953;-73
2024/01/13 12:04:00;;;;;;;;;;;;;;;-0.15;71.87;93194.41;5056302;28;19927;-73
2024/01/13 12:06:28;;;;;;;;;;;;;;;-0.60;71.89;93197.78;5054760;28;19920;-73
2024/01/13 12:08:54;;;;;;;;;;;;;;;-0.76;73.65;93191.59;5049774;28;19924;-73
2024/01/13 12:11:22;;;;;;;;;;;;;;;-0.69;74.16;93192.63;5049797;28;19931;-73
2024/01/13 12:13:48;;;;;;;;;;;;;;;-0.87;76.69;93192.59;5054727;28;19925;-73
2024/01/13 12:16:16;;;;;;;;;;;;;;;-1.29;75.86;93201.34;5049222;28;20443;-73
2024/01/13 12:18:46;;;;;;;;;;;;;;;-1.36;77.48;93201.13;5050238;28;19935;-73
2024/01/13 12:21:14;;;;;;;;;;;;;;;-0.97;77.27;93196.88;5052099;28;19990;-73
2024/01/13 12:23:44;;;;;;;;;;;;;;;-1.34;77.00;93201.00;5050157;28;19921;-73
2024/01/13 12:26:11;;;;;;;;;;;;;;;-1.73;78.47;93191.78;5049801;28;20015;-73
2024/01/13 12:28:38;;;;;;;;;;;;;;;-1.78;80.53;93186.34;5050527;28;19928;-72
2024/01/13 12:31:05;;;;;;;;;;;;;;;-1.49;78.13;93190.53;5054732;28;19995;-73
2024/01/13 12:33:32;;;;;;;;;;;;;;;-1.34;78.52;93193.44;5054613;28;19987;-73
2024/01/13 12:35:59;;;;;;;;;;;;;;;-1.45;77.58;93196.13;5050567;28;19935;-73
2024/01/13 12:38:27;;;;;;;;;;;;;;;-1.25;77.86;93196.84;5049767;28;20472;-73
2024/01/13 12:40:57;;;;;;;;;;;;;;;-1.49;78.16;93195.56;5056735;28;19924;-73
2024/01/13 12:43:24;;;;;;;;;;;;;;;-1.47;77.51;93196.25;5051622;28;19925;-73
2024/01/13 12:45:51;;;;;;;;;;;;;;;-1.79;78.25;93192.31;5049339;28;19925;-73
2024/01/13 12:48:17;;;;;;;;;;;;;;;-1.84;78.58;93187.69;5051878;28;19924;-73